createdAt,value
2023-04-23T00:02:22.794Z,96508.00
2023-04-23T00:07:25.105Z,96498.13
2023-04-23T00:12:27.749Z,96509.88
2023-04-23T00:17:29.999Z,96503.25
2023-04-23T00:22:31.681Z,96502.38
2023-04-23T00:27:33.414Z,96497.47
2023-04-23T00:32:35.255Z,96492.84
2023-04-23T00:37:37.199Z,96497.25
2023-04-23T00:42:39.269Z,96495.53
2023-04-23T00:47:41.133Z,96495.22
2023-04-23T00:52:42.805Z,96492.97
2023-04-23T00:57:44.448Z,96497.34
2023-04-23T01:02:47.557Z,96490.84
2023-04-23T01:07:49.497Z,96495.25
2023-04-23T01:12:52.219Z,96495.78
2023-04-23T01:17:53.941Z,96496.28
2023-04-23T01:22:56.228Z,96499.78
2023-04-23T01:27:58.579Z,96491.81
2023-04-23T01:33:00.962Z,96496.09
2023-04-23T01:38:03.383Z,96496.72
2023-04-23T01:43:06.146Z,96491.13
2023-04-23T01:48:07.731Z,96498.09
2023-04-23T01:53:09.561Z,96501.22
2023-04-23T01:58:11.176Z,96499.72
2023-04-23T02:03:12.954Z,96508.09
2023-04-23T02:08:14.824Z,96510.63
2023-04-23T02:13:16.420Z,96506.97
2023-04-23T02:18:18.098Z,96517.28
2023-04-23T02:23:19.715Z,96514.75
2023-04-23T02:28:21.348Z,96513.22
2023-04-23T02:33:23.463Z,96509.03
2023-04-23T02:38:25.704Z,96511.09
2023-04-23T02:43:27.482Z,96516.31
2023-04-23T02:48:29.727Z,96515.00
2023-04-23T02:53:31.935Z,96516.59
2023-04-23T02:58:33.618Z,96513.22
2023-04-23T03:03:36.383Z,96514.09
2023-04-23T03:08:39.539Z,96512.06
2023-04-23T03:13:41.360Z,96508.94
2023-04-23T03:18:42.957Z,96512.91
2023-04-23T03:23:44.799Z,96523.09
2023-04-23T03:28:46.656Z,96520.66
2023-04-23T03:33:48.660Z,96517.63
2023-04-23T03:38:56.113Z,96513.03
2023-04-23T03:43:58.361Z,96523.09
2023-04-23T03:49:20.475Z,96520.03
2023-04-23T03:54:24.570Z,96530.22
2023-04-23T03:59:52.162Z,96530.28
2023-04-23T04:04:55.137Z,96551.44
2023-04-23T04:09:59.845Z,96552.94
2023-04-23T04:15:03.185Z,96561.09
2023-04-23T04:20:06.793Z,96564.88
2023-04-23T04:25:08.754Z,96562.94
2023-04-23T04:30:11.130Z,96568.75
2023-04-23T04:35:14.196Z,96582.75
2023-04-23T04:40:16.016Z,96581.22
2023-04-23T04:45:17.891Z,96581.25
2023-04-23T04:50:19.530Z,96583.28
2023-04-23T04:55:21.213Z,96593.91
2023-04-23T05:00:24.321Z,96602.50
2023-04-23T05:05:26.803Z,96612.38
2023-04-23T05:10:29.169Z,96617.97
2023-04-23T05:15:30.791Z,96624.25
2023-04-23T05:20:32.509Z,96623.97
2023-04-23T05:25:35.663Z,96631.69
2023-04-23T05:30:37.496Z,96631.84
2023-04-23T05:35:39.155Z,96636.09
2023-04-23T05:40:41.095Z,96647.50
2023-04-23T05:45:43.110Z,96642.38
2023-04-23T05:50:45.006Z,96649.13
2023-04-23T05:55:46.612Z,96639.25
2023-04-23T06:00:49.734Z,96649.72
2023-04-23T06:05:51.599Z,96652.63
2023-04-23T06:10:53.380Z,96650.47
2023-04-23T06:15:55.208Z,96645.47
2023-04-23T06:20:57.885Z,96650.31
2023-04-23T06:26:00.649Z,96649.72
2023-04-23T06:31:02.713Z,96648.22
2023-04-23T06:36:05.604Z,96634.34
2023-04-23T06:41:07.333Z,96635.91
2023-04-23T06:46:11.359Z,96642.19
2023-04-23T06:51:13.088Z,96651.28
2023-04-23T06:56:14.734Z,96652.75
2023-04-23T07:01:18.678Z,96647.50
2023-04-23T07:06:20.751Z,96638.28
2023-04-23T07:11:22.355Z,96639.91
2023-04-23T07:16:25.559Z,96645.84
2023-04-23T07:21:28.674Z,96638.78
2023-04-23T07:26:30.684Z,96636.03
2023-04-23T07:31:32.408Z,96631.44
2023-04-23T07:36:34.053Z,96639.91
2023-04-23T07:41:36.007Z,96634.06
2023-04-23T07:46:37.666Z,96623.84
2023-04-23T07:51:39.302Z,96623.19
2023-04-23T07:56:43.099Z,96608.44
2023-04-23T08:01:45.109Z,96624.69
2023-04-23T08:06:46.993Z,96623.91
2023-04-23T08:11:48.921Z,96616.28
2023-04-23T08:16:52.545Z,96615.47
2023-04-23T08:21:54.302Z,96617.28
2023-04-23T08:26:56.957Z,96613.63
2023-04-23T08:31:58.779Z,96618.56
2023-04-23T08:37:00.370Z,96617.88
2023-04-23T08:42:07.718Z,96618.88
2023-04-23T08:47:12.272Z,96624.69
2023-04-23T08:52:19.112Z,96621.53
2023-04-23T08:57:22.126Z,96617.25
2023-04-23T09:02:24.182Z,96617.78
2023-04-23T09:07:26.024Z,96610.41
2023-04-23T09:12:27.940Z,96605.81
2023-04-23T09:17:30.689Z,96604.44
2023-04-23T09:22:38.973Z,96589.31
2023-04-23T09:27:41.359Z,96588.09
2023-04-23T09:32:45.897Z,96579.81
2023-04-23T09:37:49.363Z,96573.78
2023-04-23T09:42:54.918Z,96571.28
2023-04-23T09:47:57.903Z,96574.91
2023-04-23T09:52:59.852Z,96576.59
2023-04-23T09:58:02.710Z,96569.88
2023-04-23T10:03:06.735Z,96563.94
2023-04-23T10:08:10.297Z,96568.81
2023-04-23T10:13:13.257Z,96553.03
2023-04-23T10:18:15.086Z,96562.38
2023-04-23T10:23:17.224Z,96552.22
2023-04-23T10:28:21.891Z,96564.72
2023-04-23T10:38:31.138Z,96572.66
2023-04-23T10:43:32.868Z,96552.59
2023-04-23T10:49:05.084Z,96554.63
2023-04-23T10:54:07.337Z,96541.22
2023-04-23T10:59:18.694Z,96535.72
2023-04-23T11:04:22.709Z,96521.13
2023-04-23T11:09:30.904Z,96515.25
2023-04-23T11:14:36.366Z,96504.88
2023-04-23T11:19:38.711Z,96511.84
2023-04-23T11:24:44.757Z,96491.50
2023-04-23T11:29:46.845Z,96487.06
2023-04-23T11:34:50.459Z,96478.97
2023-04-23T11:39:52.064Z,96488.50
2023-04-23T11:44:53.645Z,96467.69
2023-04-23T11:49:55.770Z,96466.63
2023-04-23T11:55:02.246Z,96465.69
2023-04-23T12:00:11.201Z,96457.69
2023-04-23T12:05:13.606Z,96447.53
2023-04-23T12:10:21.797Z,96431.44
2023-04-23T12:15:23.727Z,96429.06
2023-04-23T12:20:25.597Z,96414.50
2023-04-23T12:25:27.400Z,96410.13
2023-04-23T12:30:32.559Z,96416.78
2023-04-23T12:36:00.916Z,96415.03
2023-04-23T12:41:02.536Z,96397.31
2023-04-23T12:46:04.184Z,96395.31
2023-04-23T12:51:06.653Z,96379.41
2023-04-23T12:56:08.230Z,96371.63
2023-04-23T13:01:12.651Z,96371.38
2023-04-23T13:06:14.754Z,96370.25
2023-04-23T13:11:16.425Z,96354.63
2023-04-23T13:16:18.143Z,96348.28
2023-04-23T13:21:19.846Z,96330.13
2023-04-23T13:26:22.542Z,96323.97
2023-04-23T13:31:24.271Z,96314.38
2023-04-23T13:36:26.106Z,96305.00
2023-04-23T13:41:27.814Z,96292.00
2023-04-23T13:46:29.507Z,96278.63
2023-04-23T13:51:34.752Z,96266.31
2023-04-23T13:56:38.068Z,96262.94
2023-04-23T14:01:39.816Z,96253.97
2023-04-23T14:06:41.913Z,96247.25
2023-04-23T14:11:43.549Z,96240.31
2023-04-23T14:16:45.208Z,96237.31
2023-04-23T14:21:47.018Z,96240.69
2023-04-23T14:26:50.178Z,96229.16
2023-04-23T14:31:52.201Z,96220.16
2023-04-23T14:36:54.370Z,96220.94
2023-04-23T14:41:56.116Z,96204.53
2023-04-23T14:46:57.699Z,96188.66
2023-04-23T14:51:59.901Z,96163.28
2023-04-23T14:57:01.879Z,96175.22
2023-04-23T15:02:03.926Z,96161.13
2023-04-23T15:07:05.743Z,96147.84
2023-04-23T15:12:25.386Z,96154.41
2023-04-23T15:17:27.323Z,96147.00
2023-04-23T15:22:29.008Z,96132.94
2023-04-23T15:27:30.611Z,96129.09
2023-04-23T15:32:32.345Z,96121.03
2023-04-23T15:37:34.058Z,96108.22
2023-04-23T15:42:35.743Z,96111.53
2023-04-23T15:47:38.426Z,96113.22
2023-04-23T15:52:41.731Z,96108.59
2023-04-23T15:57:43.412Z,96106.84
2023-04-23T16:02:45.442Z,96118.28
2023-04-23T16:07:47.384Z,96110.16
2023-04-23T16:12:49.407Z,96096.28
2023-04-23T16:17:52.651Z,96091.41
2023-04-23T16:22:55.002Z,96088.91
2023-04-23T16:27:56.812Z,96090.31
2023-04-23T16:32:59.201Z,96088.06
2023-04-23T16:38:01.001Z,96083.19
2023-04-23T16:43:02.674Z,96085.09
2023-04-23T16:48:04.560Z,96081.56
2023-04-23T16:53:06.202Z,96076.19
2023-04-23T16:58:07.851Z,96071.81
2023-04-23T17:03:09.503Z,96059.63
2023-04-23T17:08:11.151Z,96053.56
2023-04-23T17:13:12.706Z,96046.34
2023-04-23T17:18:14.463Z,96045.34
2023-04-23T17:23:16.095Z,96036.13
2023-04-23T17:28:21.526Z,96025.19
2023-04-23T17:33:23.446Z,96029.13
2023-04-23T17:38:25.967Z,96029.06
2023-04-23T17:43:27.800Z,96019.59
2023-04-23T17:48:29.861Z,96021.66
2023-04-23T17:53:31.534Z,96027.44
2023-04-23T17:58:34.812Z,96025.16
2023-04-23T18:03:40.428Z,96039.00
2023-04-23T18:08:43.416Z,96042.41
2023-04-23T18:13:45.207Z,96046.78
2023-04-23T18:18:52.044Z,96056.47
2023-04-23T18:23:53.658Z,96062.16
2023-04-23T18:28:57.806Z,96070.31
2023-04-23T18:34:02.148Z,96061.44
2023-04-23T18:39:04.119Z,96055.19
2023-04-23T18:44:06.889Z,96062.78
2023-04-23T18:49:27.452Z,96056.09
2023-04-23T18:54:31.496Z,96062.47
2023-04-23T18:59:35.844Z,96077.56
2023-04-23T19:04:37.890Z,96081.50
2023-04-23T19:09:41.660Z,96103.63
2023-04-23T19:14:44.031Z,96163.44
2023-04-23T19:19:47.497Z,96197.13
2023-04-23T19:24:49.364Z,96197.09
2023-04-23T19:29:53.581Z,96207.38
2023-04-23T19:34:55.959Z,96198.69
2023-04-23T19:39:58.334Z,96208.84
2023-04-23T19:45:00.942Z,96211.16
2023-04-23T19:50:03.034Z,96201.84
2023-04-23T19:55:04.901Z,96196.38
2023-04-23T20:00:07.334Z,96189.16
2023-04-23T20:05:10.520Z,96182.47
2023-04-23T20:10:12.577Z,96180.00
2023-04-23T20:15:14.307Z,96178.66
2023-04-23T20:20:16.264Z,96183.53
2023-04-23T20:25:19.717Z,96203.03
2023-04-23T20:30:22.345Z,96201.53
2023-04-23T20:35:23.903Z,96219.41
2023-04-23T20:40:26.047Z,96216.03
2023-04-23T20:45:27.878Z,96217.78
2023-04-23T20:50:29.964Z,96219.34
2023-04-23T20:55:31.585Z,96209.66
2023-04-23T21:00:34.910Z,96204.63
2023-04-23T21:05:40.185Z,96213.41
2023-04-23T21:10:41.776Z,96204.03
2023-04-23T21:15:43.422Z,96198.88
2023-04-23T21:20:46.020Z,96191.47
2023-04-23T21:25:47.636Z,96182.41
2023-04-23T21:30:53.393Z,96195.41
2023-04-23T21:35:55.018Z,96191.28
2023-04-23T21:40:56.633Z,96187.16
2023-04-23T21:45:58.228Z,96184.53
2023-04-23T21:51:00.293Z,96201.03
2023-04-23T21:56:02.113Z,96221.44
2023-04-23T22:01:03.970Z,96210.97
2023-04-23T22:06:06.549Z,96219.06
2023-04-23T22:11:10.380Z,96221.00
2023-04-23T22:16:24.479Z,96220.47
2023-04-23T22:21:29.208Z,96218.34
2023-04-23T22:26:31.360Z,96220.31
2023-04-23T22:31:32.941Z,96226.22
2023-04-23T22:36:34.662Z,96224.09
2023-04-23T22:41:38.730Z,96232.16
2023-04-23T22:46:40.510Z,96228.09
2023-04-23T22:51:42.311Z,96239.94
2023-04-23T22:56:43.991Z,96237.66
2023-04-23T23:01:45.959Z,96236.16
2023-04-23T23:06:47.836Z,96231.78
2023-04-23T23:11:49.468Z,96229.16
2023-04-23T23:16:51.155Z,96224.47
2023-04-23T23:21:52.855Z,96216.22
2023-04-23T23:26:54.543Z,96228.66
2023-04-23T23:31:56.961Z,96225.50
2023-04-23T23:36:58.540Z,96224.31
2023-04-23T23:42:01.855Z,96214.13
2023-04-23T23:47:04.018Z,96201.28
2023-04-23T23:52:06.089Z,96201.03
2023-04-23T23:57:07.703Z,96195.03
